Time;durP1;ratioP1;P1;durP2;ratioP2;P2;SDS_P1;SDS_P2;PMS_P1;PMS_P2;Temp;Humidity;BMP_temperature;BMP_pressure;BME280_temperature;BME280_humidity;BME280_pressure;Samples;Min_cycle;Max_cycle;Signal;HPM_P1;HPM_P2
2021/07/25 00:01:47;;;;;;;;;3.00;3.00;;;;;23.21;51.74;100408.94;4984026;28;45322;-78
2021/07/25 00:04:14;;;;;;;;;3.00;3.00;;;;;23.19;52.22;100400.09;4958739;28;45515;-79
2021/07/25 00:06:40;;;;;;;;;3.00;2.00;;;;;23.16;52.13;100400.28;4964599;28;45532;-79
2021/07/25 00:09:05;;;;;;;;;2.33;2.33;;;;;23.13;52.29;100409.41;4949258;28;47037;-80
2021/07/25 00:11:31;;;;;;;;;0.67;0.67;;;;;23.05;52.06;100395.56;4944784;28;45365;-79
2021/07/25 00:13:58;;;;;;;;;0.00;0.00;;;;;23.03;52.02;100402.84;4944599;28;45573;-80
2021/07/25 00:16:23;;;;;;;;;1.33;1.33;;;;;22.98;52.65;100407.63;4944559;28;45917;-80
2021/07/25 00:18:49;;;;;;;;;2.00;2.00;;;;;22.90;52.55;100406.25;4943799;28;48068;-79
2021/07/25 00:21:17;;;;;;;;;3.00;3.00;;;;;22.83;53.04;100396.00;4944296;28;45399;-80
2021/07/25 00:23:46;;;;;;;;;3.00;3.00;;;;;22.85;53.11;100407.47;4945176;28;45456;-79
2021/07/25 00:26:14;;;;;;;;;3.00;3.00;;;;;22.76;53.31;100411.59;4946439;28;45648;-80
2021/07/25 00:28:40;;;;;;;;;3.67;3.00;;;;;22.70;53.03;100405.72;4963445;28;45426;-80
2021/07/25 00:31:08;;;;;;;;;2.00;2.00;;;;;22.68;53.26;100409.34;4964884;28;45580;-80
2021/07/25 00:33:34;;;;;;;;;5.00;5.00;;;;;22.63;53.97;100407.91;4952304;28;45415;-80
2021/07/25 00:36:03;;;;;;;;;4.00;3.50;;;;;22.58;54.14;100394.75;4956239;28;45498;-80
2021/07/25 00:38:29;;;;;;;;;4.00;3.00;;;;;22.58;54.35;100394.75;4963527;28;46562;-80
2021/07/25 00:41:12;;;;;;;;;3.33;2.00;;;;;22.53;54.47;100390.63;4965269;28;45187;-80
2021/07/25 00:43:38;;;;;;;;;4.00;4.00;;;;;22.50;54.54;100390.81;4965997;28;45234;-80
2021/07/25 00:46:04;;;;;;;;;3.33;3.33;;;;;22.46;54.28;100391.00;4949894;28;45542;-80
2021/07/25 00:48:30;;;;;;;;;2.00;2.00;;;;;22.41;54.87;100384.16;4967332;28;46137;-81
2021/07/25 00:51:00;;;;;;;;;2.33;2.33;;;;;22.39;54.92;100381.56;4949754;28;45291;-79
2021/07/25 00:53:26;;;;;;;;;4.00;2.00;;;;;22.38;54.59;100387.03;4964407;28;45247;-80
2021/07/25 00:55:53;;;;;;;;;2.00;2.00;;;;;22.40;55.27;100398.50;4946095;28;45464;-80
2021/07/25 00:58:21;;;;;;;;;1.33;1.33;;;;;22.35;55.23;100387.22;4963844;28;45297;-80
2021/07/25 01:00:47;;;;;;;;;2.00;2.00;;;;;22.32;54.89;100374.84;4988108;28;45439;-79
2021/07/25 01:03:21;;;;;;;;;2.00;2.00;;;;;22.38;55.08;100379.84;4963268;28;45493;-79
2021/07/25 01:05:52;;;;;;;;;1.00;1.00;;;;;22.38;55.41;100387.88;4946063;28;45465;-79
2021/07/25 01:08:35;;;;;;;;;3.00;2.00;;;;;22.29;55.35;100380.38;4958810;28;47048;-80
2021/07/25 01:11:04;;;;;;;;;1.00;1.00;;;;;22.26;55.34;100379.69;4960753;28;45539;-79
2021/07/25 01:13:35;;;;;;;;;1.00;1.00;;;;;22.21;55.44;100370.13;4962875;28;45303;-79
2021/07/25 01:16:02;;;;;;;;;3.67;2.67;;;;;22.18;55.79;100370.25;4962882;28;45287;-79
2021/07/25 01:18:34;;;;;;;;;3.33;2.67;;;;;22.16;56.05;100373.94;4945288;28;48010;-79
2021/07/25 01:21:00;;;;;;;;;2.67;2.67;;;;;22.13;56.00;100364.31;4958318;28;45371;-78
2021/07/25 01:23:26;;;;;;;;;0.67;0.67;;;;;22.12;55.89;100367.91;4946053;28;45380;-79
2021/07/25 01:25:58;;;;;;;;;3.67;2.00;;;;;22.09;56.15;100362.72;4963483;28;45208;-79
2021/07/25 01:28:31;;;;;;;;;3.00;1.00;;;;;22.17;56.03;100383.75;4946526;28;48241;-79
2021/07/25 01:31:02;;;;;;;;;3.00;1.00;;;;;22.13;55.79;100376.81;4970018;28;45452;-81
2021/07/25 01:33:31;;;;;;;;;2.00;2.00;;;;;22.11;55.80;100382.28;4952860;28;45199;-80
2021/07/25 01:35:58;;;;;;;;;1.00;1.00;;;;;22.00;56.46;100374.84;4962926;28;45335;-80
2021/07/25 01:38:34;;;;;;;;;2.00;2.00;;;;;21.92;57.14;100374.44;4945448;28;48386;-79
2021/07/25 01:41:02;;;;;;;;;3.00;2.00;;;;;21.90;57.69;100373.66;4947818;28;45733;-80
2021/07/25 01:43:28;;;;;;;;;3.00;1.67;;;;;21.90;57.46;100379.00;4965789;28;45180;-79
2021/07/25 01:46:01;;;;;;;;;5.33;3.00;;;;;21.88;57.25;100374.69;4946706;28;45549;-79
2021/07/25 01:48:27;;;;;;;;;2.00;2.00;;;;;21.87;57.10;100378.34;4945997;28;48193;-78
2021/07/25 01:50:53;;;;;;;;;3.67;3.00;;;;;21.82;57.62;100377.72;4945030;28;45248;-79
2021/07/25 01:53:18;;;;;;;;;2.33;2.33;;;;;21.78;57.64;100374.31;4963348;28;45299;-79
2021/07/25 01:55:46;;;;;;;;;2.00;2.00;;;;;21.72;57.60;100372.84;4961153;28;45307;-79
2021/07/25 01:58:12;;;;;;;;;2.33;2.33;;;;;21.69;58.21;100366.81;4962931;28;45413;-78
2021/07/25 02:00:40;;;;;;;;;3.33;3.33;;;;;21.69;58.43;100370.34;4957130;28;45358;-79
2021/07/25 02:03:06;;;;;;;;;3.00;2.67;;;;;21.68;58.29;100370.44;4963220;28;45329;-78
2021/07/25 02:05:34;;;;;;;;;2.00;2.00;;;;;21.61;58.36;100372.59;4974566;28;45264;-78
2021/07/25 02:07:59;;;;;;;;;2.33;2.00;;;;;21.61;60.37;100377.97;4955472;28;47241;-79
2021/07/25 02:10:24;;;;;;;;;2.67;2.67;;;;;21.57;58.69;100369.25;4968916;28;45359;-79
2021/07/25 02:12:50;;;;;;;;;3.00;2.00;;;;;21.55;58.38;100372.94;4944891;28;45327;-79
2021/07/25 02:15:16;;;;;;;;;5.00;3.67;;;;;21.49;59.24;100362.56;4962530;28;45510;-79
2021/07/25 02:17:43;;;;;;;;;3.33;3.00;;;;;21.44;58.55;100357.47;4960702;28;46013;-79
2021/07/25 02:20:12;;;;;;;;;3.00;3.00;;;;;21.43;59.54;100366.44;4944653;28;45476;-79
2021/07/25 02:22:37;;;;;;;;;1.00;1.00;;;;;21.43;59.07;100358.41;4944868;28;45275;-80
2021/07/25 02:25:12;;;;;;;;;3.67;3.00;;;;;21.38;59.74;100360.47;4962058;28;45483;-78
2021/07/25 02:27:39;;;;;;;;;3.67;2.67;;;;;21.46;59.22;100373.44;4944569;28;46132;-79
2021/07/25 02:30:06;;;;;;;;;2.00;2.00;;;;;21.37;59.29;100358.72;4968891;28;45476;-79
2021/07/25 02:32:31;;;;;;;;;2.00;2.00;;;;;21.36;59.21;100355.19;4964546;28;45481;-79
2021/07/25 02:34:57;;;;;;;;;3.00;2.67;;;;;21.38;59.17;100355.09;4944254;28;45432;-79
2021/07/25 02:37:24;;;;;;;;;3.67;3.00;;;;;21.41;59.82;100362.13;4944533;28;48332;-79
2021/07/25 02:39:59;;;;;;;;;2.33;2.33;;;;;21.32;59.72;100344.72;4960403;28;45483;-79
2021/07/25 02:42:24;;;;;;;;;4.67;3.00;;;;;21.31;59.60;100348.34;4944661;28;45389;-79
2021/07/25 02:44:50;;;;;;;;;3.33;3.00;;;;;21.27;60.10;100338.75;4961727;28;45612;-79
2021/07/25 02:47:15;;;;;;;;;3.33;2.67;;;;;21.30;60.19;100347.50;4945112;28;48067;-79
2021/07/25 02:49:44;;;;;;;;;2.00;2.00;;;;;21.32;59.73;100348.25;4948267;28;45286;-80
2021/07/25 02:52:13;;;;;;;;;3.00;3.00;;;;;21.28;59.99;100349.38;4945618;28;45298;-80
2021/07/25 02:54:38;;;;;;;;;2.67;2.67;;;;;21.21;60.28;100341.75;4944141;28;45884;-79
2021/07/25 02:57:04;;;;;;;;;4.00;4.00;;;;;21.20;60.25;100351.63;4963499;28;45410;-80
2021/07/25 02:59:30;;;;;;;;;3.00;3.00;;;;;21.21;60.33;100344.44;4969097;28;45440;-79
2021/07/25 03:01:56;;;;;;;;;3.00;3.00;;;;;21.28;60.55;100356.56;4981335;28;45337;-80
2021/07/25 03:04:22;;;;;;;;;2.00;2.00;;;;;21.29;60.55;100358.28;4964126;28;45531;-79
2021/07/25 03:06:48;;;;;;;;;3.33;2.67;;;;;21.31;60.79;100359.06;4962556;28;46213;-79
2021/07/25 03:09:13;;;;;;;;;4.67;4.67;;;;;21.26;60.34;100350.41;4963411;28;45251;-79
2021/07/25 03:11:39;;;;;;;;;4.33;3.67;;;;;21.26;61.36;100345.91;4960466;28;45495;-79
2021/07/25 03:14:06;;;;;;;;;4.00;3.00;;;;;21.29;60.80;100350.25;4960151;28;45630;-79
2021/07/25 03:16:32;;;;;;;;;3.33;3.33;;;;;21.32;61.45;100352.75;4960366;28;46157;-79
2021/07/25 03:18:57;;;;;;;;;3.33;2.00;;;;;21.32;61.50;100350.94;4959841;28;45336;-79
2021/07/25 03:21:23;;;;;;;;;3.33;3.33;;;;;21.35;61.93;100364.16;4960171;28;45405;-79
2021/07/25 03:23:48;;;;;;;;;5.67;4.00;;;;;21.29;62.35;100352.91;4960423;28;45421;-79
2021/07/25 03:26:16;;;;;;;;;7.00;5.00;;;;;21.28;62.33;100357.41;4961511;28;48113;-80
2021/07/25 03:28:42;;;;;;;;;8.00;6.00;;;;;21.25;62.76;100357.59;4959686;28;45211;-80
2021/07/25 03:31:07;;;;;;;;;3.00;3.00;;;;;21.17;63.17;100349.09;4979236;28;45413;-80
2021/07/25 03:33:33;;;;;;;;;1.33;1.33;;;;;21.12;63.37;100345.81;4964037;28;46207;-80
2021/07/25 03:35:58;;;;;;;;;3.00;3.00;;;;;21.12;63.86;100359.19;4959865;28;48268;-80
2021/07/25 03:38:25;;;;;;;;;3.33;1.00;;;;;21.02;63.44;100348.09;4959688;28;45848;-81
2021/07/25 03:40:51;;;;;;;;;2.33;2.33;;;;;21.00;63.94;100358.03;4960007;28;45335;-80
2021/07/25 03:43:17;;;;;;;;;3.00;2.00;;;;;20.97;64.06;100346.63;4961005;28;45460;-81
2021/07/25 03:45:44;;;;;;;;;2.00;2.00;;;;;20.96;64.46;100347.59;4959767;28;48485;-79
2021/07/25 03:48:10;;;;;;;;;2.00;2.00;;;;;20.88;64.66;100343.50;4960762;28;45423;-80
2021/07/25 03:50:36;;;;;;;;;1.67;1.67;;;;;20.88;64.54;100345.31;4959874;28;45409;-79
2021/07/25 03:53:02;;;;;;;;;2.00;1.00;;;;;20.86;64.42;100336.50;4960809;28;45242;-79
2021/07/25 03:55:27;;;;;;;;;0.67;0.67;;;;;20.83;65.04;100340.19;4960811;28;45356;-80
2021/07/25 03:57:53;;;;;;;;;1.00;1.00;;;;;20.81;64.77;100336.72;4959813;28;45422;-79
2021/07/25 04:00:22;;;;;;;;;2.00;2.00;;;;;20.78;64.90;100336.88;4978756;28;45538;-79
2021/07/25 04:02:47;;;;;;;;;1.33;1.00;;;;;20.77;64.94;100331.59;4966824;28;45484;-80
2021/07/25 04:05:15;;;;;;;;;1.33;1.33;;;;;20.80;65.25;100332.34;4960586;28;45729;-80
2021/07/25 04:07:41;;;;;;;;;1.67;1.67;;;;;20.77;65.14;100329.81;4947713;28;45247;-80
2021/07/25 04:10:07;;;;;;;;;1.33;1.33;;;;;20.73;64.65;100319.34;4960822;28;45484;-80
2021/07/25 04:12:33;;;;;;;;;1.33;1.33;;;;;20.78;64.45;100322.66;4943455;28;45681;-79
2021/07/25 04:15:00;;;;;;;;;1.67;1.00;;;;;20.79;64.62;100325.22;4960635;28;45392;-79
2021/07/25 04:17:26;;;;;;;;;1.33;1.33;;;;;20.72;64.78;100307.78;4960352;28;45504;-79
2021/07/25 04:19:51;;;;;;;;;1.33;1.00;;;;;20.79;64.17;100325.22;4960665;28;45410;-80
2021/07/25 04:22:17;;;;;;;;;1.67;1.67;;;;;20.77;63.99;100318.22;4943009;28;45507;-80
2021/07/25 04:24:42;;;;;;;;;1.00;1.00;;;;;20.72;64.23;100315.81;4943142;28;47041;-80
2021/07/25 04:27:10;;;;;;;;;1.67;1.33;;;;;20.77;64.32;100331.59;4960642;28;45408;-79
2021/07/25 04:29:36;;;;;;;;;2.00;2.00;;;;;20.79;64.64;100321.69;4963792;28;45276;-79
2021/07/25 04:32:02;;;;;;;;;2.67;1.67;;;;;20.80;64.13;100326.97;4982351;28;45456;-79
2021/07/25 04:34:28;;;;;;;;;2.00;2.00;;;;;20.72;64.11;100312.28;4942819;28;48663;-80
2021/07/25 04:36:58;;;;;;;;;2.67;2.67;;;;;20.75;64.23;100318.31;4943051;28;45326;-79
2021/07/25 04:39:24;;;;;;;;;1.67;1.67;;;;;20.79;64.39;100319.03;4961056;28;45416;-80
2021/07/25 04:41:54;;;;;;;;;2.00;2.00;;;;;20.78;64.67;100317.31;4960331;28;45470;-80
2021/07/25 04:44:42;;;;;;;;;1.00;1.00;;;;;20.75;64.56;100304.94;4960523;28;45318;-80
2021/07/25 04:47:12;;;;;;;;;3.33;3.33;;;;;20.77;64.42;100315.56;4943115;28;45317;-80
2021/07/25 04:49:48;;;;;;;;;3.00;3.00;;;;;20.75;64.30;100310.31;4961762;28;45219;-80
2021/07/25 04:52:16;;;;;;;;;5.33;3.00;;;;;20.81;64.70;100334.06;4963922;28;45211;-80
2021/07/25 04:54:45;;;;;;;;;2.00;2.00;;;;;20.70;64.50;100325.72;4958788;28;47840;-80
2021/07/25 04:57:14;;;;;;;;;4.33;4.33;;;;;20.64;64.96;100318.03;4963751;28;45369;-80
2021/07/25 04:59:44;;;;;;;;;3.00;3.00;;;;;20.70;64.75;100331.06;4950819;28;45276;-79
2021/07/25 05:02:11;;;;;;;;;3.00;1.67;;;;;20.66;65.57;100333.06;4982908;28;45474;-80
2021/07/25 05:04:37;;;;;;;;;3.00;3.00;;;;;20.70;64.97;100333.75;4969706;28;46391;-79
2021/07/25 05:07:03;;;;;;;;;4.00;4.00;;;;;20.68;65.06;100332.97;4957457;28;45270;-80
2021/07/25 05:09:29;;;;;;;;;6.75;5.75;;;;;20.64;65.18;100328.72;4952571;28;45276;-79
2021/07/25 05:12:01;;;;;;;;;4.00;4.00;;;;;20.73;64.93;100340.75;4953475;28;45263;-79
2021/07/25 05:14:51;;;;;;;;;3.67;3.67;;;;;20.77;65.02;100334.28;4969292;28;46399;-79
2021/07/25 05:17:16;;;;;;;;;4.00;4.00;;;;;20.78;64.49;100338.72;4949169;28;45974;-79
2021/07/25 05:20:03;;;;;;;;;5.33;4.33;;;;;20.76;65.02;100336.09;4946499;28;45323;-79
2021/07/25 05:22:51;;;;;;;;;5.00;4.00;;;;;20.76;65.02;100332.56;4951580;28;45634;-80
2021/07/25 05:25:17;;;;;;;;;4.00;4.00;;;;;20.72;65.14;100328.34;4949786;28;48094;-79
2021/07/25 05:27:48;;;;;;;;;6.00;4.33;;;;;20.72;65.02;100326.53;4964897;28;45286;-80
2021/07/25 05:30:16;;;;;;;;;3.00;3.00;;;;;20.68;64.49;100322.25;4968201;28;45462;-80
2021/07/25 05:32:42;;;;;;;;;6.00;6.00;;;;;20.73;65.13;100330.06;4963143;28;45572;-80
2021/07/25 05:35:08;;;;;;;;;4.00;4.00;;;;;20.78;65.12;100330.69;4975288;28;46326;-80
2021/07/25 05:37:34;;;;;;;;;5.00;4.75;;;;;20.78;65.21;100322.66;4962843;28;45311;-80
2021/07/25 05:39:59;;;;;;;;;5.33;5.33;;;;;20.79;64.76;100330.59;4962723;28;45276;-80
2021/07/25 05:42:25;;;;;;;;;4.00;4.00;;;;;20.81;64.95;100323.34;4945309;28;45624;-80
2021/07/25 05:44:51;;;;;;;;;7.00;5.00;;;;;20.89;64.50;100333.66;4945286;28;46554;-80
2021/07/25 05:47:16;;;;;;;;;6.00;6.00;;;;;20.86;64.43;100326.66;4962625;28;45561;-84
2021/07/25 05:49:42;;;;;;;;;5.50;5.50;;;;;20.91;64.94;100323.72;4962767;28;45362;-82
2021/07/25 05:52:07;;;;;;;;;7.00;6.00;;;;;20.91;64.51;100315.72;4955938;28;45947;-82
2021/07/25 05:54:32;;;;;;;;;6.00;6.00;;;;;20.96;64.71;100323.50;4947608;28;48218;-83
2021/07/25 05:57:00;;;;;;;;;5.00;5.00;;;;;21.02;64.49;100321.34;4945227;28;45634;-84
2021/07/25 05:59:26;;;;;;;;;6.67;6.67;;;;;21.10;63.71;100319.09;4948713;28;45358;-83
2021/07/25 06:01:53;;;;;;;;;6.67;6.67;;;;;21.14;65.00;100317.13;4970237;28;45518;-84
2021/07/25 06:04:21;;;;;;;;;7.00;6.50;;;;;21.13;64.20;100318.94;4962087;28;47312;-85
2021/07/25 06:06:46;;;;;;;;;5.67;5.00;;;;;21.20;63.88;100330.19;4961781;28;45477;-84
2021/07/25 06:09:12;;;;;;;;;5.67;4.67;;;;;21.22;64.55;100324.75;4964612;28;45335;-83
2021/07/25 06:11:38;;;;;;;;;7.33;5.33;;;;;21.25;64.09;100320.09;4963694;28;45411;-81
2021/07/25 06:14:04;;;;;;;;;5.33;4.00;;;;;21.28;64.14;100327.09;4962813;28;45429;-81
2021/07/25 06:16:30;;;;;;;;;5.50;5.50;;;;;21.28;63.51;100324.41;4960697;28;45512;-81
2021/07/25 06:18:55;;;;;;;;;5.25;4.50;;;;;21.28;63.87;100327.97;4961170;28;45393;-81
2021/07/25 06:21:21;;;;;;;;;7.33;5.67;;;;;21.29;63.52;100326.13;4960933;28;45454;-83
2021/07/25 06:23:50;;;;;;;;;5.33;5.33;;;;;21.29;63.75;100320.78;4962512;28;46430;-80
2021/07/25 06:26:19;;;;;;;;;5.00;4.00;;;;;21.41;63.56;100333.53;4962434;28;45210;-83
2021/07/25 06:28:49;;;;;;;;;4.67;4.67;;;;;21.36;63.48;100316.84;4960750;28;45355;-82
2021/07/25 06:31:15;;;;;;;;;7.00;6.00;;;;;21.44;63.43;100330.69;4982363;28;45253;-85
2021/07/25 06:33:40;;;;;;;;;10.00;6.00;;;;;21.46;63.43;100333.25;4963575;28;46932;-80
2021/07/25 06:36:11;;;;;;;;;6.33;6.00;;;;;21.50;63.70;100329.47;4960637;28;45547;-81
2021/07/25 06:38:37;;;;;;;;;9.50;7.00;;;;;21.49;63.35;100325.94;4960887;28;45207;-79
2021/07/25 06:41:03;;;;;;;;;5.00;4.00;;;;;21.48;62.72;100313.47;4961755;28;45464;-79
2021/07/25 06:43:28;;;;;;;;;5.67;5.67;;;;;21.49;62.64;100328.63;4966742;28;47186;-78
2021/07/25 06:45:54;;;;;;;;;6.00;6.00;;;;;21.49;62.85;100328.63;4967017;28;45352;-80
2021/07/25 06:48:23;;;;;;;;;6.33;6.33;;;;;21.51;63.04;100324.03;4977676;28;45324;-78
2021/07/25 06:50:51;;;;;;;;;7.00;5.67;;;;;21.49;62.44;100327.72;4967277;28;45419;-76
2021/07/25 06:53:18;;;;;;;;;7.67;6.33;;;;;21.46;62.27;100335.94;4960355;28;48431;-76
2021/07/25 06:55:45;;;;;;;;;7.00;6.67;;;;;21.42;62.51;100342.44;4961580;28;45271;-76
2021/07/25 06:58:10;;;;;;;;;6.33;6.33;;;;;21.44;62.64;100351.22;4973624;28;45301;-76
2021/07/25 07:00:36;;;;;;;;;6.67;6.67;;;;;21.43;62.87;100360.22;4987607;28;45459;-76
2021/07/25 07:03:01;;;;;;;;;8.25;8.00;;;;;21.42;62.97;100348.66;4962782;28;46093;-76
2021/07/25 07:05:29;;;;;;;;;8.00;7.00;;;;;21.49;62.74;100343.81;4956174;28;45897;-83
2021/07/25 07:07:57;;;;;;;;;6.67;6.00;;;;;21.59;62.87;100350.38;4967064;28;45362;-79
2021/07/25 07:10:25;;;;;;;;;9.33;9.33;;;;;21.62;62.75;100344.84;4972898;28;45512;-78
2021/07/25 07:12:52;;;;;;;;;7.00;6.00;;;;;21.76;62.58;100349.47;4944234;28;47053;-77
2021/07/25 07:15:19;;;;;;;;;6.33;6.33;;;;;21.86;62.40;100344.41;4943546;28;45381;-77
2021/07/25 07:17:44;;;;;;;;;7.00;7.00;;;;;21.95;62.09;100344.78;4949356;28;45301;-77
2021/07/25 07:20:11;;;;;;;;;8.33;7.00;;;;;21.99;61.83;100346.31;4970579;28;45580;-77
2021/07/25 07:22:37;;;;;;;;;7.00;6.33;;;;;22.04;61.54;100346.03;4962322;28;47966;-77
2021/07/25 07:25:05;;;;;;;;;7.00;7.00;;;;;22.08;61.70;100349.41;4954451;28;45207;-77
2021/07/25 07:27:31;;;;;;;;;7.00;6.00;;;;;22.08;61.26;100352.09;4962234;28;45278;-78
2021/07/25 07:29:59;;;;;;;;;4.67;2.67;;;;;22.11;60.87;100357.28;4959928;28;45583;-77
2021/07/25 07:32:25;;;;;;;;;6.33;5.33;;;;;22.11;60.99;100354.63;4968689;28;48294;-77
2021/07/25 07:34:51;;;;;;;;;8.33;8.33;;;;;22.18;61.20;100350.59;4954140;28;45404;-77
2021/07/25 07:37:16;;;;;;;;;7.00;5.67;;;;;22.26;60.90;100359.09;4982698;28;45237;-79
2021/07/25 07:39:43;;;;;;;;;7.00;7.00;;;;;22.34;60.59;100355.97;4963290;28;45583;-78
2021/07/25 07:42:10;;;;;;;;;9.00;7.00;;;;;22.33;60.41;100348.88;4956706;28;48671;-79
2021/07/25 07:44:37;;;;;;;;;8.33;8.33;;;;;22.40;59.78;100353.81;4943297;28;45487;-79
2021/07/25 07:47:04;;;;;;;;;6.67;6.67;;;;;22.39;59.32;100345.84;4943653;28;45421;-80
2021/07/25 07:49:29;;;;;;;;;10.00;10.00;;;;;22.46;59.64;100349.88;4972902;28;45452;-79
2021/07/25 07:51:55;;;;;;;;;6.00;6.00;;;;;22.57;59.17;100342.06;4961185;28;45984;-81
2021/07/25 07:54:21;;;;;;;;;6.67;6.67;;;;;22.61;58.80;100357.03;4968491;28;45552;-80
2021/07/25 07:56:47;;;;;;;;;8.00;8.00;;;;;22.62;58.80;100360.56;4980995;28;45519;-78
2021/07/25 07:59:12;;;;;;;;;9.00;7.33;;;;;22.54;59.00;100355.66;4962321;28;46110;-80
2021/07/25 08:01:38;;;;;;;;;6.67;6.00;;;;;22.55;58.60;100352.00;4979845;28;46998;-79
2021/07/25 08:04:03;;;;;;;;;10.33;9.33;;;;;22.52;58.77;100341.47;4977844;28;45263;-80
2021/07/25 08:06:29;;;;;;;;;10.33;8.00;;;;;22.54;58.39;100349.44;4960197;28;45211;-82
2021/07/25 08:08:54;;;;;;;;;9.00;7.67;;;;;22.56;58.44;100360.91;4963738;28;45241;-81
2021/07/25 08:11:20;;;;;;;;;10.33;9.33;;;;;22.56;58.47;100360.91;4968221;28;46181;-80
2021/07/25 08:13:48;;;;;;;;;8.67;8.00;;;;;22.57;58.37;100359.97;4965292;28;45397;-83
2021/07/25 08:16:13;;;;;;;;;10.33;9.67;;;;;22.56;58.90;100360.91;4960150;28;45431;-82
2021/07/25 08:18:39;;;;;;;;;8.67;7.33;;;;;22.57;58.58;100354.63;4959013;28;45437;-81
2021/07/25 08:21:05;;;;;;;;;8.00;8.00;;;;;22.65;58.44;100363.06;4959966;28;47476;-80
2021/07/25 08:23:33;;;;;;;;;11.00;8.33;;;;;22.74;58.28;100370.53;4960012;28;45725;-79
2021/07/25 08:26:02;;;;;;;;;7.25;7.25;;;;;22.80;58.41;100369.31;4971787;28;45437;-81
2021/07/25 08:28:28;;;;;;;;;8.67;8.33;;;;;22.84;58.54;100360.97;4979327;28;45537;-80
2021/07/25 08:31:07;;;;;;;;;;;;;;;;;;;;;
2021/07/25 08:33:33;;;;;;;;;9.00;9.00;;;;;22.79;57.93;100344.28;4980516;28;71669;-76
2021/07/25 08:35:58;;;;;;;;;10.00;9.50;;;;;22.81;57.93;100357.63;4972884;28;45389;-76
2021/07/25 08:38:27;;;;;;;;;13.00;10.67;;;;;22.85;58.11;100357.38;4966337;28;45303;-77
2021/07/25 08:41:04;;;;;;;;;8.33;8.00;;;;;22.87;58.17;100357.25;4963435;28;45543;-76
2021/07/25 08:43:37;;;;;;;;;9.33;9.33;;;;;22.84;57.99;100357.44;4961463;28;45410;-76
2021/07/25 08:46:14;;;;;;;;;8.33;8.33;;;;;22.82;57.87;100353.97;4963526;28;45371;-77
2021/07/25 08:48:57;;;;;;;;;8.00;7.00;;;;;22.79;57.85;100360.41;4963670;28;45415;-76
2021/07/25 08:51:32;;;;;;;;;10.33;8.00;;;;;22.69;57.56;100351.16;4963130;28;46478;-76
2021/07/25 08:54:07;;;;;;;;;11.67;10.33;;;;;22.73;57.88;100358.09;4974252;28;45510;-77
2021/07/25 08:56:43;;;;;;;;;7.67;7.67;;;;;22.73;57.69;100357.25;4963619;28;45437;-77
2021/07/25 08:59:12;;;;;;;;;8.00;8.00;;;;;22.70;58.19;100349.38;4963242;28;45476;-76
2021/07/25 09:01:42;;;;;;;;;8.50;8.25;;;;;22.81;57.63;100360.31;4986091;28;45479;-77
2021/07/25 09:04:08;;;;;;;;;7.00;7.00;;;;;22.87;58.09;100360.78;4945777;28;45467;-77
2021/07/25 09:06:47;;;;;;;;;10.00;8.33;;;;;22.93;57.67;100342.59;4945818;28;45432;-76
2021/07/25 09:09:13;;;;;;;;;9.00;9.00;;;;;23.10;57.76;100358.56;4979622;28;45276;-77
2021/07/25 09:11:38;;;;;;;;;8.67;8.67;;;;;23.17;57.50;100351.81;4972731;28;45373;-77
2021/07/25 09:14:06;;;;;;;;;9.33;9.33;;;;;23.21;57.19;100347.16;4963211;28;45537;-76
2021/07/25 09:16:34;;;;;;;;;10.67;9.33;;;;;23.28;56.67;100346.66;4945921;28;45429;-77
2021/07/25 09:19:00;;;;;;;;;8.67;8.67;;;;;23.34;57.14;100343.59;4945366;28;45461;-77
2021/07/25 09:21:44;;;;;;;;;10.67;7.33;;;;;23.49;57.11;100355.16;4945532;28;47230;-77
2021/07/25 09:24:23;;;;;;;;;10.75;9.00;;;;;23.56;56.66;100342.22;4962761;28;45358;-76
2021/07/25 09:26:53;;;;;;;;;7.00;7.00;;;;;23.60;55.92;100348.25;4962988;28;45279;-77
2021/07/25 09:29:25;;;;;;;;;8.00;8.00;;;;;23.62;56.45;100352.56;4956014;28;45468;-77
2021/07/25 09:31:50;;;;;;;;;12.00;8.67;;;;;23.71;56.07;100346.63;4964296;28;45602;-77
2021/07/25 09:34:37;;;;;;;;;8.00;8.00;;;;;23.83;55.78;100358.41;4945164;28;45377;-76
2021/07/25 09:37:10;;;;;;;;;7.00;7.00;;;;;23.89;55.77;100349.94;4945859;28;45525;-77
2021/07/25 09:39:48;;;;;;;;;6.67;5.00;;;;;23.90;55.48;100356.19;4962513;28;45510;-77
2021/07/25 09:42:14;;;;;;;;;5.33;5.00;;;;;23.87;55.50;100345.63;4962900;28;46008;-77
2021/07/25 09:44:45;;;;;;;;;6.33;5.33;;;;;23.87;55.40;100348.31;4957983;28;45412;-77
2021/07/25 09:47:29;;;;;;;;;7.00;6.00;;;;;23.89;55.12;100349.94;4945514;28;45324;-76
2021/07/25 09:49:55;;;;;;;;;7.00;6.67;;;;;23.87;55.06;100346.50;4944789;28;45314;-76
2021/07/25 09:52:32;;;;;;;;;4.67;4.67;;;;;23.94;54.81;100349.63;4945162;28;47543;-76
2021/07/25 09:54:58;;;;;;;;;4.00;4.00;;;;;24.10;55.15;100341.41;4962468;28;45736;-75
2021/07/25 09:57:25;;;;;;;;;7.00;5.00;;;;;24.27;54.60;100353.72;4962242;28;45716;-75
2021/07/25 09:59:55;;;;;;;;;3.33;3.00;;;;;24.41;54.00;100348.31;4973295;28;45499;-74
2021/07/25 10:02:39;;;;;;;;;5.00;4.67;;;;;24.35;53.88;100346.00;4982704;28;47090;-76
2021/07/25 10:05:13;;;;;;;;;6.00;6.00;;;;;24.31;54.16;100342.66;4960951;28;45263;-75
2021/07/25 10:07:39;;;;;;;;;7.67;6.67;;;;;24.36;54.20;100340.53;4965395;28;45432;-77
2021/07/25 10:10:07;;;;;;;;;9.33;7.67;;;;;24.52;53.23;100340.38;4974819;28;46379;-77
2021/07/25 10:12:35;;;;;;;;;7.33;6.33;;;;;24.64;53.29;100342.25;4972770;28;47401;-75
2021/07/25 10:15:07;;;;;;;;;5.33;5.00;;;;;24.72;53.55;100333.63;4961882;28;45515;-79
2021/07/25 10:17:34;;;;;;;;;5.33;5.33;;;;;24.83;53.48;100328.38;4973987;28;45568;-84
2021/07/25 10:20:02;;;;;;;;;6.33;6.33;;;;;25.11;53.27;100333.63;4971867;28;45578;-77
2021/07/25 10:22:32;;;;;;;;;7.33;6.00;;;;;25.26;52.30;100327.16;4974198;28;46602;-81
2021/07/25 10:25:00;;;;;;;;;6.33;6.00;;;;;25.39;52.45;100325.31;4980414;28;45768;-82
2021/07/25 10:27:32;;;;;;;;;8.00;7.00;;;;;25.66;52.30;100329.66;4978931;28;45476;-79
2021/07/25 10:30:09;;;;;;;;;8.00;8.00;;;;;25.84;51.24;100328.34;4979252;28;45620;-80
2021/07/25 10:32:38;;;;;;;;;7.00;6.00;;;;;25.95;51.12;100316.75;4970276;28;48458;-80
2021/07/25 10:35:07;;;;;;;;;7.33;7.00;;;;;26.04;50.59;100324.16;4965146;28;45379;-81
2021/07/25 10:37:36;;;;;;;;;7.00;7.00;;;;;26.03;50.10;100313.47;4959807;28;45357;-82
2021/07/25 10:40:03;;;;;;;;;7.67;7.33;;;;;25.94;50.06;100310.50;4967053;28;45394;-80
2021/07/25 10:42:31;;;;;;;;;8.00;8.00;;;;;25.87;50.20;100320.00;4965648;28;45358;-79
2021/07/25 10:44:57;;;;;;;;;8.00;6.67;;;;;25.77;49.67;100312.69;4963493;28;45325;-78
2021/07/25 10:47:32;;;;;;;;;8.33;7.33;;;;;25.78;49.53;100320.69;4970650;28;45393;-80
2021/07/25 10:50:15;;;;;;;;;9.00;7.00;;;;;25.95;49.91;100319.44;4962210;28;45538;-79
2021/07/25 10:52:54;;;;;;;;;8.00;7.00;;;;;26.08;49.26;100317.53;4975689;28;47308;-80
2021/07/25 10:55:43;;;;;;;;;8.67;8.67;;;;;26.11;48.79;100314.59;4967080;28;45516;-80
2021/07/25 10:58:15;;;;;;;;;8.00;8.00;;;;;26.06;48.25;100305.16;4979813;28;45075;-85
2021/07/25 11:00:54;;;;;;;;;9.00;9.00;;;;;26.09;49.21;100308.50;4981079;28;45487;-81
2021/07/25 11:03:26;;;;;;;;;8.67;7.33;;;;;26.15;48.31;100312.56;4979964;28;47597;-89
2021/07/25 11:06:13;;;;;;;;;7.67;7.67;;;;;26.07;48.67;100306.88;4986721;28;45279;-91
2021/07/25 11:08:50;;;;;;;;;7.00;6.00;;;;;25.92;49.02;100300.78;4977080;28;44705;-91
2021/07/25 11:11:25;;;;;;;;;8.00;7.00;;;;;25.74;49.18;100309.25;4980186;28;44845;-89
2021/07/25 11:13:56;;;;;;;;;9.67;8.67;;;;;25.56;49.55;100313.31;4968564;28;47085;-92
2021/07/25 11:16:27;;;;;;;;;8.67;7.33;;;;;25.32;49.18;100309.72;4977871;28;45279;-90
2021/07/25 11:18:57;;;;;;;;;8.33;8.00;;;;;25.09;49.33;100304.94;4966735;28;45363;-90
2021/07/25 11:21:41;;;;;;;;;13.75;13.75;;;;;24.99;49.87;100311.09;4976408;28;45432;-89
2021/07/25 11:24:28;;;;;;;;;12.25;10.00;;;;;24.86;50.26;100301.22;4982847;28;46423;-90
2021/07/25 11:26:54;;;;;;;;;26.75;26.75;;;;;24.77;51.32;100311.75;4972052;28;44878;-90
2021/07/25 11:29:23;;;;;;;;;11.67;10.33;;;;;24.57;51.63;100323.94;4988618;28;45243;-92
2021/07/25 11:31:54;;;;;;;;;14.00;13.00;;;;;24.31;53.85;100344.50;4993761;28;45646;-87
2021/07/25 11:34:27;;;;;;;;;13.25;11.50;;;;;24.10;54.15;100333.34;4980857;28;46959;-89